sensor_id;sensor_type;location;lat;lon;timestamp;P1;durP1;ratioP1;P2;durP2;ratioP2
64674;SDS011;51090;51.512;11.332;2022-07-22T00:01:37;3.90;;;2.70;;
64674;SDS011;51090;51.512;11.332;2022-07-22T00:04:03;4.00;;;2.33;;
64674;SDS011;51090;51.512;11.332;2022-07-22T00:06:29;6.57;;;3.67;;
64674;SDS011;51090;51.512;11.332;2022-07-22T00:08:55;5.93;;;3.00;;
64674;SDS011;51090;51.512;11.332;2022-07-22T00:11:22;4.88;;;2.65;;
64674;SDS011;51090;51.512;11.332;2022-07-22T00:13:48;4.47;;;2.60;;
64674;SDS011;51090;51.512;11.332;2022-07-22T00:16:14;3.67;;;2.40;;
64674;SDS011;51090;51.512;11.332;2022-07-22T00:18:40;5.38;;;2.90;;
64674;SDS011;51090;51.512;11.332;2022-07-22T00:21:07;6.20;;;3.40;;
64674;SDS011;51090;51.512;11.332;2022-07-22T00:23:33;5.82;;;2.85;;
64674;SDS011;51090;51.512;11.332;2022-07-22T00:25:59;5.97;;;2.78;;
64674;SDS011;51090;51.512;11.332;2022-07-22T00:28:25;4.47;;;2.85;;
64674;SDS011;51090;51.512;11.332;2022-07-22T00:30:51;4.80;;;3.00;;
64674;SDS011;51090;51.512;11.332;2022-07-22T00:33:17;6.20;;;3.38;;
64674;SDS011;51090;51.512;11.332;2022-07-22T00:35:43;4.35;;;2.63;;
64674;SDS011;51090;51.512;11.332;2022-07-22T00:38:09;5.40;;;3.10;;
64674;SDS011;51090;51.512;11.332;2022-07-22T00:40:35;6.95;;;3.65;;
64674;SDS011;51090;51.512;11.332;2022-07-22T00:43:01;5.68;;;3.20;;
64674;SDS011;51090;51.512;11.332;2022-07-22T00:45:27;5.75;;;3.08;;
64674;SDS011;51090;51.512;11.332;2022-07-22T00:47:53;5.47;;;3.10;;
64674;SDS011;51090;51.512;11.332;2022-07-22T00:50:20;4.57;;;2.72;;
64674;SDS011;51090;51.512;11.332;2022-07-22T00:52:48;5.00;;;2.88;;
64674;SDS011;51090;51.512;11.332;2022-07-22T00:55:15;4.45;;;3.05;;
64674;SDS011;51090;51.512;11.332;2022-07-22T00:57:41;8.80;;;3.95;;
64674;SDS011;51090;51.512;11.332;2022-07-22T01:00:09;7.88;;;3.75;;
64674;SDS011;51090;51.512;11.332;2022-07-22T01:02:38;8.80;;;4.28;;
64674;SDS011;51090;51.512;11.332;2022-07-22T01:05:04;6.65;;;3.13;;
64674;SDS011;51090;51.512;11.332;2022-07-22T01:07:31;7.53;;;3.90;;
64674;SDS011;51090;51.512;11.332;2022-07-22T01:09:57;5.88;;;3.55;;
64674;SDS011;51090;51.512;11.332;2022-07-22T01:12:23;8.77;;;3.95;;
64674;SDS011;51090;51.512;11.332;2022-07-22T01:14:49;6.93;;;4.00;;
64674;SDS011;51090;51.512;11.332;2022-07-22T01:17:16;7.00;;;3.95;;
64674;SDS011;51090;51.512;11.332;2022-07-22T01:19:42;9.05;;;3.80;;
64674;SDS011;51090;51.512;11.332;2022-07-22T01:22:08;6.97;;;4.03;;
64674;SDS011;51090;51.512;11.332;2022-07-22T01:24:34;6.32;;;3.45;;
64674;SDS011;51090;51.512;11.332;2022-07-22T01:27:01;8.73;;;4.53;;
64674;SDS011;51090;51.512;11.332;2022-07-22T01:29:27;7.10;;;4.00;;
64674;SDS011;51090;51.512;11.332;2022-07-22T01:31:53;6.38;;;3.53;;
64674;SDS011;51090;51.512;11.332;2022-07-22T01:34:19;8.02;;;4.10;;
64674;SDS011;51090;51.512;11.332;2022-07-22T01:36:45;6.60;;;3.65;;
64674;SDS011;51090;51.512;11.332;2022-07-22T01:39:11;6.15;;;3.78;;
64674;SDS011;51090;51.512;11.332;2022-07-22T01:41:37;6.65;;;3.90;;
64674;SDS011;51090;51.512;11.332;2022-07-22T01:44:03;7.18;;;3.88;;
64674;SDS011;51090;51.512;11.332;2022-07-22T01:46:29;7.38;;;3.97;;
64674;SDS011;51090;51.512;11.332;2022-07-22T01:48:55;8.15;;;4.15;;
64674;SDS011;51090;51.512;11.332;2022-07-22T01:51:22;6.55;;;3.78;;
64674;SDS011;51090;51.512;11.332;2022-07-22T01:53:48;5.50;;;3.20;;
64674;SDS011;51090;51.512;11.332;2022-07-22T01:56:14;5.55;;;3.40;;
64674;SDS011;51090;51.512;11.332;2022-07-22T01:58:40;6.35;;;3.90;;
64674;SDS011;51090;51.512;11.332;2022-07-22T02:01:07;5.47;;;3.00;;
64674;SDS011;51090;51.512;11.332;2022-07-22T02:03:33;6.93;;;3.50;;
64674;SDS011;51090;51.512;11.332;2022-07-22T02:05:59;7.35;;;3.30;;
64674;SDS011;51090;51.512;11.332;2022-07-22T02:08:26;5.18;;;3.15;;
64674;SDS011;51090;51.512;11.332;2022-07-22T02:10:52;5.72;;;3.58;;
64674;SDS011;51090;51.512;11.332;2022-07-22T02:13:18;5.70;;;3.45;;
64674;SDS011;51090;51.512;11.332;2022-07-22T02:15:44;5.05;;;2.70;;
64674;SDS011;51090;51.512;11.332;2022-07-22T02:18:14;5.57;;;3.00;;
64674;SDS011;51090;51.512;11.332;2022-07-22T02:20:41;4.50;;;2.63;;
64674;SDS011;51090;51.512;11.332;2022-07-22T02:23:07;6.30;;;3.10;;
64674;SDS011;51090;51.512;11.332;2022-07-22T02:25:36;4.97;;;2.78;;
64674;SDS011;51090;51.512;11.332;2022-07-22T02:28:02;5.07;;;2.80;;
64674;SDS011;51090;51.512;11.332;2022-07-22T02:30:29;6.70;;;2.90;;
64674;SDS011;51090;51.512;11.332;2022-07-22T02:32:55;5.13;;;2.95;;
64674;SDS011;51090;51.512;11.332;2022-07-22T02:35:22;5.82;;;2.95;;
64674;SDS011;51090;51.512;11.332;2022-07-22T02:37:48;5.53;;;3.13;;
64674;SDS011;51090;51.512;11.332;2022-07-22T02:40:14;6.07;;;2.72;;
64674;SDS011;51090;51.512;11.332;2022-07-22T02:42:40;4.72;;;2.70;;
64674;SDS011;51090;51.512;11.332;2022-07-22T02:45:07;4.07;;;2.25;;
64674;SDS011;51090;51.512;11.332;2022-07-22T02:47:33;6.97;;;2.70;;
64674;SDS011;51090;51.512;11.332;2022-07-22T02:50:00;6.70;;;2.42;;
64674;SDS011;51090;51.512;11.332;2022-07-22T02:52:26;5.05;;;2.55;;
64674;SDS011;51090;51.512;11.332;2022-07-22T02:54:52;5.55;;;2.50;;
64674;SDS011;51090;51.512;11.332;2022-07-22T02:57:18;4.03;;;2.33;;
64674;SDS011;51090;51.512;11.332;2022-07-22T02:59:44;6.20;;;2.47;;
64674;SDS011;51090;51.512;11.332;2022-07-22T03:02:10;7.28;;;3.05;;
64674;SDS011;51090;51.512;11.332;2022-07-22T03:04:36;5.65;;;2.75;;
64674;SDS011;51090;51.512;11.332;2022-07-22T03:07:02;5.50;;;2.30;;
64674;SDS011;51090;51.512;11.332;2022-07-22T03:09:28;3.92;;;2.10;;
64674;SDS011;51090;51.512;11.332;2022-07-22T03:11:54;6.35;;;2.80;;
64674;SDS011;51090;51.512;11.332;2022-07-22T03:14:20;4.07;;;2.25;;
64674;SDS011;51090;51.512;11.332;2022-07-22T03:16:47;8.20;;;3.05;;
64674;SDS011;51090;51.512;11.332;2022-07-22T03:19:13;4.97;;;2.65;;
64674;SDS011;51090;51.512;11.332;2022-07-22T03:21:39;4.45;;;2.45;;
64674;SDS011;51090;51.512;11.332;2022-07-22T03:24:05;4.88;;;2.53;;
64674;SDS011;51090;51.512;11.332;2022-07-22T03:26:31;4.95;;;2.80;;
64674;SDS011;51090;51.512;11.332;2022-07-22T03:28:57;4.45;;;2.58;;
64674;SDS011;51090;51.512;11.332;2022-07-22T03:31:23;5.63;;;2.45;;
64674;SDS011;51090;51.512;11.332;2022-07-22T03:33:49;7.35;;;2.90;;
64674;SDS011;51090;51.512;11.332;2022-07-22T03:36:15;7.53;;;2.65;;
64674;SDS011;51090;51.512;11.332;2022-07-22T03:38:41;6.72;;;3.15;;
64674;SDS011;51090;51.512;11.332;2022-07-22T03:41:07;8.18;;;3.13;;
64674;SDS011;51090;51.512;11.332;2022-07-22T03:43:33;7.93;;;3.17;;
64674;SDS011;51090;51.512;11.332;2022-07-22T03:45:59;6.05;;;3.72;;
64674;SDS011;51090;51.512;11.332;2022-07-22T03:48:26;6.60;;;3.55;;
64674;SDS011;51090;51.512;11.332;2022-07-22T03:50:52;6.93;;;3.85;;
64674;SDS011;51090;51.512;11.332;2022-07-22T03:53:18;6.55;;;3.78;;
64674;SDS011;51090;51.512;11.332;2022-07-22T03:55:45;6.18;;;3.33;;
64674;SDS011;51090;51.512;11.332;2022-07-22T03:58:11;6.75;;;3.40;;
64674;SDS011;51090;51.512;11.332;2022-07-22T04:00:37;7.07;;;3.22;;
64674;SDS011;51090;51.512;11.332;2022-07-22T04:03:03;5.82;;;3.08;;
64674;SDS011;51090;51.512;11.332;2022-07-22T04:05:29;6.47;;;3.85;;
64674;SDS011;51090;51.512;11.332;2022-07-22T04:07:55;6.43;;;3.22;;
64674;SDS011;51090;51.512;11.332;2022-07-22T04:10:21;8.30;;;3.35;;
64674;SDS011;51090;51.512;11.332;2022-07-22T04:12:47;6.32;;;3.53;;
64674;SDS011;51090;51.512;11.332;2022-07-22T04:15:13;5.72;;;3.00;;
64674;SDS011;51090;51.512;11.332;2022-07-22T04:17:39;4.88;;;3.33;;
64674;SDS011;51090;51.512;11.332;2022-07-22T04:20:06;5.18;;;2.97;;
64674;SDS011;51090;51.512;11.332;2022-07-22T04:22:32;5.93;;;3.50;;
64674;SDS011;51090;51.512;11.332;2022-07-22T04:24:58;6.18;;;3.42;;
64674;SDS011;51090;51.512;11.332;2022-07-22T04:27:24;6.18;;;3.80;;
64674;SDS011;51090;51.512;11.332;2022-07-22T04:29:50;5.43;;;3.15;;
64674;SDS011;51090;51.512;11.332;2022-07-22T04:32:16;7.28;;;3.55;;
64674;SDS011;51090;51.512;11.332;2022-07-22T04:34:42;5.15;;;2.80;;
64674;SDS011;51090;51.512;11.332;2022-07-22T04:37:08;5.40;;;3.17;;
64674;SDS011;51090;51.512;11.332;2022-07-22T04:39:34;4.55;;;2.72;;
64674;SDS011;51090;51.512;11.332;2022-07-22T04:42:00;5.72;;;2.95;;
64674;SDS011;51090;51.512;11.332;2022-07-22T04:44:27;4.60;;;2.72;;
64674;SDS011;51090;51.512;11.332;2022-07-22T04:46:53;5.10;;;2.60;;
64674;SDS011;51090;51.512;11.332;2022-07-22T04:49:19;5.40;;;2.83;;
64674;SDS011;51090;51.512;11.332;2022-07-22T04:51:45;5.82;;;3.20;;
64674;SDS011;51090;51.512;11.332;2022-07-22T04:54:11;10.18;;;3.78;;
64674;SDS011;51090;51.512;11.332;2022-07-22T04:56:37;4.88;;;2.92;;
64674;SDS011;51090;51.512;11.332;2022-07-22T04:59:03;7.63;;;4.05;;
64674;SDS011;51090;51.512;11.332;2022-07-22T05:01:29;8.40;;;2.88;;
64674;SDS011;51090;51.512;11.332;2022-07-22T05:03:55;6.35;;;2.95;;
64674;SDS011;51090;51.512;11.332;2022-07-22T05:06:21;4.57;;;2.97;;
64674;SDS011;51090;51.512;11.332;2022-07-22T05:08:47;4.78;;;2.58;;
64674;SDS011;51090;51.512;11.332;2022-07-22T05:11:13;6.65;;;3.05;;
64674;SDS011;51090;51.512;11.332;2022-07-22T05:13:39;5.32;;;2.90;;
64674;SDS011;51090;51.512;11.332;2022-07-22T05:16:06;9.02;;;3.40;;
64674;SDS011;51090;51.512;11.332;2022-07-22T05:18:33;6.18;;;3.88;;
64674;SDS011;51090;51.512;11.332;2022-07-22T05:20:59;6.50;;;2.78;;
64674;SDS011;51090;51.512;11.332;2022-07-22T05:23:26;4.25;;;2.40;;
64674;SDS011;51090;51.512;11.332;2022-07-22T05:25:52;9.23;;;3.65;;
64674;SDS011;51090;51.512;11.332;2022-07-22T05:28:18;8.45;;;3.22;;
64674;SDS011;51090;51.512;11.332;2022-07-22T05:30:44;6.45;;;2.75;;
64674;SDS011;51090;51.512;11.332;2022-07-22T05:33:11;4.95;;;2.80;;
64674;SDS011;51090;51.512;11.332;2022-07-22T05:35:37;5.80;;;2.53;;
64674;SDS011;51090;51.512;11.332;2022-07-22T05:38:03;4.97;;;2.47;;
64674;SDS011;51090;51.512;11.332;2022-07-22T05:40:30;4.38;;;2.53;;
64674;SDS011;51090;51.512;11.332;2022-07-22T05:42:57;3.97;;;2.53;;
64674;SDS011;51090;51.512;11.332;2022-07-22T05:45:23;5.07;;;2.53;;
64674;SDS011;51090;51.512;11.332;2022-07-22T05:47:50;5.00;;;2.92;;
64674;SDS011;51090;51.512;11.332;2022-07-22T05:50:16;5.05;;;3.00;;
64674;SDS011;51090;51.512;11.332;2022-07-22T05:52:42;6.97;;;3.33;;
64674;SDS011;51090;51.512;11.332;2022-07-22T05:55:08;4.70;;;3.00;;
64674;SDS011;51090;51.512;11.332;2022-07-22T05:57:35;5.85;;;3.20;;
64674;SDS011;51090;51.512;11.332;2022-07-22T06:00:04;5.40;;;2.95;;
64674;SDS011;51090;51.512;11.332;2022-07-22T06:02:31;4.15;;;2.53;;
64674;SDS011;51090;51.512;11.332;2022-07-22T06:04:58;3.78;;;2.20;;
64674;SDS011;51090;51.512;11.332;2022-07-22T06:07:25;18.88;;;11.02;;
64674;SDS011;51090;51.512;11.332;2022-07-22T06:09:52;3.53;;;2.10;;
64674;SDS011;51090;51.512;11.332;2022-07-22T06:12:18;4.32;;;2.20;;
64674;SDS011;51090;51.512;11.332;2022-07-22T06:14:44;5.03;;;2.45;;
64674;SDS011;51090;51.512;11.332;2022-07-22T06:17:11;5.60;;;1.85;;
64674;SDS011;51090;51.512;11.332;2022-07-22T06:19:37;4.15;;;2.00;;
64674;SDS011;51090;51.512;11.332;2022-07-22T06:22:04;4.40;;;2.00;;
64674;SDS011;51090;51.512;11.332;2022-07-22T06:24:30;4.35;;;1.80;;
64674;SDS011;51090;51.512;11.332;2022-07-22T06:26:56;3.13;;;1.80;;
64674;SDS011;51090;51.512;11.332;2022-07-22T06:29:22;2.97;;;1.95;;
64674;SDS011;51090;51.512;11.332;2022-07-22T06:31:48;3.22;;;1.70;;
64674;SDS011;51090;51.512;11.332;2022-07-22T06:34:14;2.30;;;1.63;;
64674;SDS011;51090;51.512;11.332;2022-07-22T06:36:40;2.60;;;1.73;;
64674;SDS011;51090;51.512;11.332;2022-07-22T06:39:06;7.78;;;2.10;;
64674;SDS011;51090;51.512;11.332;2022-07-22T06:41:33;3.85;;;1.60;;
64674;SDS011;51090;51.512;11.332;2022-07-22T06:43:59;2.40;;;1.30;;
64674;SDS011;51090;51.512;11.332;2022-07-22T06:46:25;2.95;;;1.30;;
64674;SDS011;51090;51.512;11.332;2022-07-22T06:48:51;4.70;;;1.58;;
64674;SDS011;51090;51.512;11.332;2022-07-22T06:51:17;3.58;;;1.30;;
64674;SDS011;51090;51.512;11.332;2022-07-22T06:53:43;3.25;;;1.33;;
64674;SDS011;51090;51.512;11.332;2022-07-22T06:56:09;3.28;;;1.52;;
64674;SDS011;51090;51.512;11.332;2022-07-22T06:58:35;3.17;;;1.70;;
64674;SDS011;51090;51.512;11.332;2022-07-22T07:01:01;3.97;;;1.40;;
64674;SDS011;51090;51.512;11.332;2022-07-22T07:03:27;3.15;;;1.25;;
64674;SDS011;51090;51.512;11.332;2022-07-22T07:05:53;2.58;;;1.10;;
64674;SDS011;51090;51.512;11.332;2022-07-22T07:08:20;2.40;;;1.23;;
64674;SDS011;51090;51.512;11.332;2022-07-22T07:10:46;2.00;;;1.10;;
64674;SDS011;51090;51.512;11.332;2022-07-22T07:13:13;2.10;;;1.30;;
64674;SDS011;51090;51.512;11.332;2022-07-22T07:15:39;1.90;;;1.20;;
64674;SDS011;51090;51.512;11.332;2022-07-22T07:18:05;2.78;;;1.05;;
64674;SDS011;51090;51.512;11.332;2022-07-22T07:20:31;1.70;;;1.02;;
64674;SDS011;51090;51.512;11.332;2022-07-22T07:22:59;1.92;;;0.60;;
64674;SDS011;51090;51.512;11.332;2022-07-22T07:25:26;0.73;;;0.40;;
64674;SDS011;51090;51.512;11.332;2022-07-22T07:27:52;3.13;;;0.80;;
64674;SDS011;51090;51.512;11.332;2022-07-22T07:30:18;2.08;;;0.60;;
64674;SDS011;51090;51.512;11.332;2022-07-22T07:32:45;0.20;;;0.20;;
64674;SDS011;51090;51.512;11.332;2022-07-22T07:35:11;0.40;;;0.30;;
64674;SDS011;51090;51.512;11.332;2022-07-22T07:37:37;0.55;;;0.20;;
64674;SDS011;51090;51.512;11.332;2022-07-22T07:40:04;3.33;;;0.45;;
64674;SDS011;51090;51.512;11.332;2022-07-22T07:42:31;1.30;;;0.30;;
64674;SDS011;51090;51.512;11.332;2022-07-22T07:44:57;1.75;;;0.35;;
64674;SDS011;51090;51.512;11.332;2022-07-22T07:47:23;0.90;;;0.57;;
64674;SDS011;51090;51.512;11.332;2022-07-22T07:49:49;1.05;;;0.35;;
64674;SDS011;51090;51.512;11.332;2022-07-22T07:52:16;0.82;;;0.30;;
64674;SDS011;51090;51.512;11.332;2022-07-22T07:54:42;0.30;;;0.20;;
64674;SDS011;51090;51.512;11.332;2022-07-22T07:57:09;1.05;;;0.30;;
64674;SDS011;51090;51.512;11.332;2022-07-22T07:59:37;1.15;;;0.20;;
64674;SDS011;51090;51.512;11.332;2022-07-22T08:02:04;0.47;;;0.30;;
64674;SDS011;51090;51.512;11.332;2022-07-22T08:04:30;0.65;;;0.22;;
64674;SDS011;51090;51.512;11.332;2022-07-22T08:06:56;1.77;;;0.40;;
64674;SDS011;51090;51.512;11.332;2022-07-22T08:09:23;1.45;;;0.30;;
64674;SDS011;51090;51.512;11.332;2022-07-22T08:11:49;0.30;;;0.20;;
64674;SDS011;51090;51.512;11.332;2022-07-22T08:14:15;0.30;;;0.20;;
64674;SDS011;51090;51.512;11.332;2022-07-22T08:16:42;1.35;;;0.30;;
64674;SDS011;51090;51.512;11.332;2022-07-22T08:19:08;0.65;;;0.28;;
64674;SDS011;51090;51.512;11.332;2022-07-22T08:21:34;2.45;;;0.30;;
64674;SDS011;51090;51.512;11.332;2022-07-22T08:24:00;1.05;;;0.30;;
64674;SDS011;51090;51.512;11.332;2022-07-22T08:26:26;0.55;;;0.40;;
64674;SDS011;51090;51.512;11.332;2022-07-22T08:28:53;0.40;;;0.30;;
64674;SDS011;51090;51.512;11.332;2022-07-22T08:31:19;1.33;;;0.40;;
64674;SDS011;51090;51.512;11.332;2022-07-22T08:33:45;1.27;;;0.32;;
64674;SDS011;51090;51.512;11.332;2022-07-22T08:36:11;0.45;;;0.32;;
64674;SDS011;51090;51.512;11.332;2022-07-22T08:38:38;0.43;;;0.32;;
64674;SDS011;51090;51.512;11.332;2022-07-22T08:41:04;0.47;;;0.30;;
64674;SDS011;51090;51.512;11.332;2022-07-22T08:43:31;4.30;;;0.55;;
64674;SDS011;51090;51.512;11.332;2022-07-22T08:46:01;0.45;;;0.30;;
64674;SDS011;51090;51.512;11.332;2022-07-22T08:48:27;1.35;;;0.30;;
64674;SDS011;51090;51.512;11.332;2022-07-22T08:50:54;0.55;;;0.30;;
64674;SDS011;51090;51.512;11.332;2022-07-22T08:53:20;0.30;;;0.30;;
64674;SDS011;51090;51.512;11.332;2022-07-22T08:55:47;1.15;;;0.35;;
64674;SDS011;51090;51.512;11.332;2022-07-22T08:58:14;0.60;;;0.50;;
64674;SDS011;51090;51.512;11.332;2022-07-22T09:00:41;0.30;;;0.30;;
64674;SDS011;51090;51.512;11.332;2022-07-22T09:03:18;0.30;;;0.30;;
64674;SDS011;51090;51.512;11.332;2022-07-22T09:05:50;0.32;;;0.20;;
64674;SDS011;51090;51.512;11.332;2022-07-22T09:08:18;0.38;;;0.38;;
64674;SDS011;51090;51.512;11.332;2022-07-22T09:10:45;0.90;;;0.30;;
64674;SDS011;51090;51.512;11.332;2022-07-22T09:13:11;1.40;;;0.38;;
64674;SDS011;51090;51.512;11.332;2022-07-22T09:15:53;0.45;;;0.40;;
64674;SDS011;51090;51.512;11.332;2022-07-22T09:18:20;0.82;;;0.45;;
64674;SDS011;51090;51.512;11.332;2022-07-22T09:20:46;0.60;;;0.30;;
64674;SDS011;51090;51.512;11.332;2022-07-22T09:23:19;0.30;;;0.30;;
64674;SDS011;51090;51.512;11.332;2022-07-22T09:25:48;0.50;;;0.30;;
64674;SDS011;51090;51.512;11.332;2022-07-22T09:28:16;1.83;;;0.50;;
64674;SDS011;51090;51.512;11.332;2022-07-22T09:33:13;1.45;;;0.40;;
64674;SDS011;51090;51.512;11.332;2022-07-22T09:35:39;3.60;;;0.50;;
64674;SDS011;51090;51.512;11.332;2022-07-22T09:38:06;0.80;;;0.30;;
64674;SDS011;51090;51.512;11.332;2022-07-22T09:40:44;1.00;;;0.28;;
64674;SDS011;51090;51.512;11.332;2022-07-22T09:43:12;0.95;;;0.40;;
64674;SDS011;51090;51.512;11.332;2022-07-22T09:45:49;0.60;;;0.20;;
64674;SDS011;51090;51.512;11.332;2022-07-22T09:48:16;1.13;;;0.30;;
64674;SDS011;51090;51.512;11.332;2022-07-22T09:50:47;3.13;;;0.60;;
64674;SDS011;51090;51.512;11.332;2022-07-22T09:53:15;0.30;;;0.30;;
64674;SDS011;51090;51.512;11.332;2022-07-22T09:55:44;1.23;;;0.30;;
64674;SDS011;51090;51.512;11.332;2022-07-22T09:58:11;0.70;;;0.30;;
64674;SDS011;51090;51.512;11.332;2022-07-22T10:00:37;0.40;;;0.20;;
64674;SDS011;51090;51.512;11.332;2022-07-22T10:03:06;1.63;;;0.30;;
64674;SDS011;51090;51.512;11.332;2022-07-22T10:05:39;0.43;;;0.22;;
64674;SDS011;51090;51.512;11.332;2022-07-22T10:08:07;0.30;;;0.30;;
64674;SDS011;51090;51.512;11.332;2022-07-22T10:10:34;0.68;;;0.25;;
64674;SDS011;51090;51.512;11.332;2022-07-22T10:13:03;0.20;;;0.20;;
64674;SDS011;51090;51.512;11.332;2022-07-22T10:15:32;0.25;;;0.25;;
64674;SDS011;51090;51.512;11.332;2022-07-22T10:18:00;1.55;;;0.80;;
64674;SDS011;51090;51.512;11.332;2022-07-22T10:20:30;2.30;;;1.00;;
64674;SDS011;51090;51.512;11.332;2022-07-22T10:22:58;3.42;;;0.90;;
64674;SDS011;51090;51.512;11.332;2022-07-22T10:25:26;2.90;;;1.00;;
64674;SDS011;51090;51.512;11.332;2022-07-22T10:27:56;1.42;;;0.80;;
64674;SDS011;51090;51.512;11.332;2022-07-22T10:30:29;1.42;;;0.70;;
64674;SDS011;51090;51.512;11.332;2022-07-22T10:33:05;1.02;;;0.68;;
64674;SDS011;51090;51.512;11.332;2022-07-22T10:35:58;0.98;;;0.70;;
64674;SDS011;51090;51.512;11.332;2022-07-22T10:38:26;1.48;;;0.80;;
64674;SDS011;51090;51.512;11.332;2022-07-22T10:41:00;2.30;;;0.90;;
64674;SDS011;51090;51.512;11.332;2022-07-22T10:43:31;1.33;;;0.70;;
64674;SDS011;51090;51.512;11.332;2022-07-22T10:46:12;1.33;;;0.88;;
64674;SDS011;51090;51.512;11.332;2022-07-22T10:51:06;2.35;;;0.60;;
64674;SDS011;51090;51.512;11.332;2022-07-22T11:01:34;0.68;;;0.60;;
64674;SDS011;51090;51.512;11.332;2022-07-22T11:06:40;1.08;;;0.80;;
64674;SDS011;51090;51.512;11.332;2022-07-22T11:09:11;1.20;;;0.70;;
64674;SDS011;51090;51.512;11.332;2022-07-22T11:14:14;1.25;;;0.80;;
64674;SDS011;51090;51.512;11.332;2022-07-22T11:19:08;1.00;;;0.50;;
64674;SDS011;51090;51.512;11.332;2022-07-22T11:21:35;1.38;;;0.70;;
64674;SDS011;51090;51.512;11.332;2022-07-22T11:24:03;1.10;;;0.60;;
64674;SDS011;51090;51.512;11.332;2022-07-22T11:29:05;1.13;;;0.40;;
64674;SDS011;51090;51.512;11.332;2022-07-22T11:31:31;0.50;;;0.50;;
64674;SDS011;51090;51.512;11.332;2022-07-22T11:34:31;0.68;;;0.60;;
64674;SDS011;51090;51.512;11.332;2022-07-22T11:36:51;0.57;;;0.50;;
64674;SDS011;51090;51.512;11.332;2022-07-22T11:39:19;1.73;;;0.80;;
64674;SDS011;51090;51.512;11.332;2022-07-22T11:41:51;0.70;;;0.60;;
64674;SDS011;51090;51.512;11.332;2022-07-22T11:44:18;1.13;;;0.60;;
64674;SDS011;51090;51.512;11.332;2022-07-22T11:46:46;0.80;;;0.65;;
64674;SDS011;51090;51.512;11.332;2022-07-22T11:49:13;0.68;;;0.52;;
64674;SDS011;51090;51.512;11.332;2022-07-22T11:51:41;0.73;;;0.43;;
64674;SDS011;51090;51.512;11.332;2022-07-22T11:54:08;3.00;;;0.65;;
64674;SDS011;51090;51.512;11.332;2022-07-22T11:56:34;0.60;;;0.52;;
64674;SDS011;51090;51.512;11.332;2022-07-22T11:59:01;1.20;;;0.60;;
64674;SDS011;51090;51.512;11.332;2022-07-22T12:01:33;1.47;;;0.70;;
64674;SDS011;51090;51.512;11.332;2022-07-22T12:04:07;0.45;;;0.45;;
64674;SDS011;51090;51.512;11.332;2022-07-22T12:06:35;3.05;;;0.60;;
64674;SDS011;51090;51.512;11.332;2022-07-22T12:09:04;1.15;;;0.52;;
64674;SDS011;51090;51.512;11.332;2022-07-22T12:11:33;4.07;;;0.50;;
64674;SDS011;51090;51.512;11.332;2022-07-22T12:14:07;0.73;;;0.43;;
64674;SDS011;51090;51.512;11.332;2022-07-22T12:16:35;1.13;;;0.52;;
64674;SDS011;51090;51.512;11.332;2022-07-22T12:19:04;2.22;;;0.60;;
64674;SDS011;51090;51.512;11.332;2022-07-22T12:21:33;1.40;;;0.60;;
64674;SDS011;51090;51.512;11.332;2022-07-22T12:24:02;1.30;;;0.47;;
64674;SDS011;51090;51.512;11.332;2022-07-22T12:26:40;1.60;;;0.40;;
64674;SDS011;51090;51.512;11.332;2022-07-22T12:29:30;2.03;;;0.63;;
64674;SDS011;51090;51.512;11.332;2022-07-22T12:32:00;0.82;;;0.70;;
64674;SDS011;51090;51.512;11.332;2022-07-22T12:36:57;3.45;;;0.60;;
64674;SDS011;51090;51.512;11.332;2022-07-22T12:39:23;0.55;;;0.40;;
64674;SDS011;51090;51.512;11.332;2022-07-22T12:41:51;2.15;;;0.50;;
64674;SDS011;51090;51.512;11.332;2022-07-22T12:44:20;0.80;;;0.50;;
64674;SDS011;51090;51.512;11.332;2022-07-22T12:46:52;3.10;;;0.80;;
64674;SDS011;51090;51.512;11.332;2022-07-22T12:49:23;0.50;;;0.50;;
64674;SDS011;51090;51.512;11.332;2022-07-22T12:54:33;1.20;;;0.65;;
64674;SDS011;51090;51.512;11.332;2022-07-22T12:57:00;0.75;;;0.50;;
64674;SDS011;51090;51.512;11.332;2022-07-22T12:59:26;1.52;;;0.70;;
64674;SDS011;51090;51.512;11.332;2022-07-22T13:01:52;1.23;;;0.70;;
64674;SDS011;51090;51.512;11.332;2022-07-22T13:04:18;0.80;;;0.77;;
64674;SDS011;51090;51.512;11.332;2022-07-22T13:06:44;0.80;;;0.60;;
64674;SDS011;51090;51.512;11.332;2022-07-22T13:09:10;1.25;;;0.70;;
64674;SDS011;51090;51.512;11.332;2022-07-22T13:11:37;1.95;;;0.70;;
64674;SDS011;51090;51.512;11.332;2022-07-22T13:14:08;2.13;;;0.90;;
64674;SDS011;51090;51.512;11.332;2022-07-22T13:16:35;1.48;;;0.90;;
64674;SDS011;51090;51.512;11.332;2022-07-22T13:19:01;1.35;;;0.70;;
64674;SDS011;51090;51.512;11.332;2022-07-22T13:21:27;2.50;;;1.05;;
64674;SDS011;51090;51.512;11.332;2022-07-22T13:23:54;12.38;;;8.95;;
64674;SDS011;51090;51.512;11.332;2022-07-22T13:26:20;3.75;;;1.33;;
64674;SDS011;51090;51.512;11.332;2022-07-22T13:28:46;3.53;;;1.98;;
64674;SDS011;51090;51.512;11.332;2022-07-22T13:31:12;2.28;;;1.52;;
64674;SDS011;51090;51.512;11.332;2022-07-22T13:33:38;3.42;;;1.33;;
64674;SDS011;51090;51.512;11.332;2022-07-22T13:36:04;2.20;;;0.80;;
64674;SDS011;51090;51.512;11.332;2022-07-22T13:38:31;3.40;;;0.75;;
64674;SDS011;51090;51.512;11.332;2022-07-22T13:40:57;1.30;;;0.90;;
64674;SDS011;51090;51.512;11.332;2022-07-22T13:43:23;1.10;;;0.70;;
64674;SDS011;51090;51.512;11.332;2022-07-22T13:45:50;1.20;;;0.88;;
64674;SDS011;51090;51.512;11.332;2022-07-22T13:48:17;2.85;;;0.70;;
64674;SDS011;51090;51.512;11.332;2022-07-22T13:50:44;1.13;;;0.73;;
64674;SDS011;51090;51.512;11.332;2022-07-22T13:53:11;2.05;;;0.95;;
64674;SDS011;51090;51.512;11.332;2022-07-22T13:55:38;1.13;;;1.00;;
64674;SDS011;51090;51.512;11.332;2022-07-22T13:58:04;2.75;;;1.10;;
64674;SDS011;51090;51.512;11.332;2022-07-22T14:00:31;2.28;;;1.42;;
64674;SDS011;51090;51.512;11.332;2022-07-22T14:02:58;1.77;;;0.93;;
64674;SDS011;51090;51.512;11.332;2022-07-22T14:05:24;3.00;;;1.10;;
64674;SDS011;51090;51.512;11.332;2022-07-22T14:07:50;1.10;;;0.80;;
64674;SDS011;51090;51.512;11.332;2022-07-22T14:10:16;2.40;;;0.75;;
64674;SDS011;51090;51.512;11.332;2022-07-22T14:12:43;3.25;;;1.08;;
64674;SDS011;51090;51.512;11.332;2022-07-22T14:15:09;3.20;;;1.05;;
64674;SDS011;51090;51.512;11.332;2022-07-22T14:17:36;1.80;;;0.82;;
64674;SDS011;51090;51.512;11.332;2022-07-22T14:20:03;1.15;;;0.70;;
64674;SDS011;51090;51.512;11.332;2022-07-22T14:22:32;1.00;;;0.70;;
64674;SDS011;51090;51.512;11.332;2022-07-22T14:24:58;0.85;;;0.80;;
64674;SDS011;51090;51.512;11.332;2022-07-22T14:27:24;2.95;;;0.90;;
64674;SDS011;51090;51.512;11.332;2022-07-22T14:29:50;1.00;;;0.80;;
64674;SDS011;51090;51.512;11.332;2022-07-22T14:32:16;1.42;;;0.80;;
64674;SDS011;51090;51.512;11.332;2022-07-22T14:34:43;1.30;;;0.70;;
64674;SDS011;51090;51.512;11.332;2022-07-22T14:37:09;1.10;;;1.00;;
64674;SDS011;51090;51.512;11.332;2022-07-22T14:39:35;1.63;;;1.02;;
64674;SDS011;51090;51.512;11.332;2022-07-22T14:42:01;1.75;;;0.80;;
64674;SDS011;51090;51.512;11.332;2022-07-22T14:44:27;3.75;;;0.88;;
64674;SDS011;51090;51.512;11.332;2022-07-22T14:46:54;3.03;;;1.05;;
64674;SDS011;51090;51.512;11.332;2022-07-22T14:49:20;2.05;;;0.90;;
64674;SDS011;51090;51.512;11.332;2022-07-22T14:51:46;3.72;;;0.95;;
64674;SDS011;51090;51.512;11.332;2022-07-22T14:54:12;1.92;;;1.40;;
64674;SDS011;51090;51.512;11.332;2022-07-22T14:56:39;3.17;;;1.02;;
64674;SDS011;51090;51.512;11.332;2022-07-22T14:59:05;1.13;;;1.00;;
64674;SDS011;51090;51.512;11.332;2022-07-22T15:01:32;2.78;;;1.08;;